sensor_id;sensor_type;location;lat;lon;timestamp;temperature;humidity
6865;DHT22;3471;49.678;8.388;2023-07-29T00:01:20;20.30;99.90
6865;DHT22;3471;49.678;8.388;2023-07-29T00:03:46;20.30;99.90
6865;DHT22;3471;49.678;8.388;2023-07-29T00:06:11;20.30;99.90
6865;DHT22;3471;49.678;8.388;2023-07-29T00:08:37;20.30;99.90
6865;DHT22;3471;49.678;8.388;2023-07-29T00:11:03;20.30;99.90
6865;DHT22;3471;49.678;8.388;2023-07-29T00:13:28;20.30;99.90
6865;DHT22;3471;49.678;8.388;2023-07-29T00:15:55;20.20;99.90
6865;DHT22;3471;49.678;8.388;2023-07-29T00:18:21;20.30;99.90
6865;DHT22;3471;49.678;8.388;2023-07-29T00:20:47;20.40;99.90
6865;DHT22;3471;49.678;8.388;2023-07-29T00:23:13;20.40;99.90
6865;DHT22;3471;49.678;8.388;2023-07-29T00:25:39;20.40;99.90
6865;DHT22;3471;49.678;8.388;2023-07-29T00:28:04;20.50;99.90
6865;DHT22;3471;49.678;8.388;2023-07-29T00:30:30;20.50;99.90
6865;DHT22;3471;49.678;8.388;2023-07-29T00:32:55;20.50;99.90
6865;DHT22;3471;49.678;8.388;2023-07-29T00:35:21;20.60;99.90
6865;DHT22;3471;49.678;8.388;2023-07-29T00:37:47;20.60;99.90
6865;DHT22;3471;49.678;8.388;2023-07-29T00:40:21;20.50;99.90
6865;DHT22;3471;49.678;8.388;2023-07-29T00:42:47;20.50;99.90
6865;DHT22;3471;49.678;8.388;2023-07-29T00:45:13;20.50;99.90
6865;DHT22;3471;49.678;8.388;2023-07-29T00:47:38;20.50;99.90
6865;DHT22;3471;49.678;8.388;2023-07-29T00:50:08;20.50;99.90
6865;DHT22;3471;49.678;8.388;2023-07-29T00:52:34;20.50;99.90
6865;DHT22;3471;49.678;8.388;2023-07-29T00:55:00;20.50;99.90
6865;DHT22;3471;49.678;8.388;2023-07-29T00:57:26;20.50;99.90
6865;DHT22;3471;49.678;8.388;2023-07-29T00:59:54;20.50;99.90
6865;DHT22;3471;49.678;8.388;2023-07-29T01:02:19;20.50;99.90
6865;DHT22;3471;49.678;8.388;2023-07-29T01:04:45;20.50;99.90
6865;DHT22;3471;49.678;8.388;2023-07-29T01:07:30;20.40;99.90
6865;DHT22;3471;49.678;8.388;2023-07-29T01:12:54;20.50;99.90
6865;DHT22;3471;49.678;8.388;2023-07-29T01:15:36;20.50;99.90
6865;DHT22;3471;49.678;8.388;2023-07-29T01:18:21;20.50;99.90
6865;DHT22;3471;49.678;8.388;2023-07-29T01:20:48;20.50;99.90
6865;DHT22;3471;49.678;8.388;2023-07-29T01:23:15;20.50;99.90
6865;DHT22;3471;49.678;8.388;2023-07-29T01:25:41;20.50;99.90
6865;DHT22;3471;49.678;8.388;2023-07-29T01:28:07;20.50;99.90
6865;DHT22;3471;49.678;8.388;2023-07-29T01:30:39;20.50;99.90
6865;DHT22;3471;49.678;8.388;2023-07-29T01:33:35;20.50;99.90
6865;DHT22;3471;49.678;8.388;2023-07-29T01:36:18;20.50;99.90
6865;DHT22;3471;49.678;8.388;2023-07-29T01:38:46;20.50;99.90
6865;DHT22;3471;49.678;8.388;2023-07-29T01:41:13;20.50;99.90
6865;DHT22;3471;49.678;8.388;2023-07-29T01:43:39;20.50;99.90
6865;DHT22;3471;49.678;8.388;2023-07-29T01:46:12;20.60;99.90
6865;DHT22;3471;49.678;8.388;2023-07-29T01:48:38;20.60;99.90
6865;DHT22;3471;49.678;8.388;2023-07-29T01:51:05;20.60;99.90
6865;DHT22;3471;49.678;8.388;2023-07-29T01:53:31;20.70;99.90
6865;DHT22;3471;49.678;8.388;2023-07-29T01:55:56;20.70;99.90
6865;DHT22;3471;49.678;8.388;2023-07-29T01:58:22;20.70;99.90
6865;DHT22;3471;49.678;8.388;2023-07-29T02:00:48;20.70;99.90
6865;DHT22;3471;49.678;8.388;2023-07-29T02:03:14;20.70;99.90
6865;DHT22;3471;49.678;8.388;2023-07-29T02:05:39;20.70;99.90
6865;DHT22;3471;49.678;8.388;2023-07-29T02:08:05;20.70;99.90
6865;DHT22;3471;49.678;8.388;2023-07-29T02:10:31;20.70;99.90
6865;DHT22;3471;49.678;8.388;2023-07-29T02:12:57;20.60;99.90
6865;DHT22;3471;49.678;8.388;2023-07-29T02:15:22;20.60;99.90
6865;DHT22;3471;49.678;8.388;2023-07-29T02:17:50;20.60;99.90
6865;DHT22;3471;49.678;8.388;2023-07-29T02:20:17;20.60;99.90
6865;DHT22;3471;49.678;8.388;2023-07-29T02:22:42;20.60;99.90
6865;DHT22;3471;49.678;8.388;2023-07-29T02:25:08;20.60;99.90
6865;DHT22;3471;49.678;8.388;2023-07-29T02:27:35;20.60;99.90
6865;DHT22;3471;49.678;8.388;2023-07-29T02:30:01;20.50;99.90
6865;DHT22;3471;49.678;8.388;2023-07-29T02:32:27;20.50;99.90
6865;DHT22;3471;49.678;8.388;2023-07-29T02:34:53;20.50;99.90
6865;DHT22;3471;49.678;8.388;2023-07-29T02:37:19;20.50;99.90
6865;DHT22;3471;49.678;8.388;2023-07-29T02:39:45;20.50;99.90
6865;DHT22;3471;49.678;8.388;2023-07-29T02:42:11;20.50;99.90
6865;DHT22;3471;49.678;8.388;2023-07-29T02:44:36;20.40;99.90
6865;DHT22;3471;49.678;8.388;2023-07-29T02:47:02;20.50;99.90
6865;DHT22;3471;49.678;8.388;2023-07-29T02:49:27;20.50;99.90
6865;DHT22;3471;49.678;8.388;2023-07-29T02:51:53;20.50;99.90
6865;DHT22;3471;49.678;8.388;2023-07-29T02:54:19;20.50;99.90
6865;DHT22;3471;49.678;8.388;2023-07-29T02:56:44;20.50;99.90
6865;DHT22;3471;49.678;8.388;2023-07-29T02:59:10;20.50;99.90
6865;DHT22;3471;49.678;8.388;2023-07-29T03:01:36;20.50;99.90
6865;DHT22;3471;49.678;8.388;2023-07-29T03:04:01;20.50;99.90
6865;DHT22;3471;49.678;8.388;2023-07-29T03:06:27;20.60;99.90
6865;DHT22;3471;49.678;8.388;2023-07-29T03:08:52;20.50;99.90
6865;DHT22;3471;49.678;8.388;2023-07-29T03:11:18;20.50;99.90
6865;DHT22;3471;49.678;8.388;2023-07-29T03:13:44;20.50;99.90
6865;DHT22;3471;49.678;8.388;2023-07-29T03:16:12;20.50;99.90
6865;DHT22;3471;49.678;8.388;2023-07-29T03:18:38;20.50;99.90
6865;DHT22;3471;49.678;8.388;2023-07-29T03:21:04;20.50;99.90
6865;DHT22;3471;49.678;8.388;2023-07-29T03:23:30;20.50;99.90
6865;DHT22;3471;49.678;8.388;2023-07-29T03:25:57;20.40;99.90
6865;DHT22;3471;49.678;8.388;2023-07-29T03:28:34;20.40;99.90
6865;DHT22;3471;49.678;8.388;2023-07-29T03:30:59;20.40;99.90
6865;DHT22;3471;49.678;8.388;2023-07-29T03:33:26;20.40;99.90
6865;DHT22;3471;49.678;8.388;2023-07-29T03:35:52;20.40;99.90
6865;DHT22;3471;49.678;8.388;2023-07-29T03:38:18;20.30;99.90
6865;DHT22;3471;49.678;8.388;2023-07-29T03:40:44;20.30;99.90
6865;DHT22;3471;49.678;8.388;2023-07-29T03:43:09;20.20;99.90
6865;DHT22;3471;49.678;8.388;2023-07-29T03:45:36;20.20;99.90
6865;DHT22;3471;49.678;8.388;2023-07-29T03:48:02;20.20;99.90
6865;DHT22;3471;49.678;8.388;2023-07-29T03:50:28;20.30;99.90
6865;DHT22;3471;49.678;8.388;2023-07-29T03:52:55;20.30;99.90
6865;DHT22;3471;49.678;8.388;2023-07-29T03:55:20;20.30;99.90
6865;DHT22;3471;49.678;8.388;2023-07-29T03:57:46;20.30;99.90
6865;DHT22;3471;49.678;8.388;2023-07-29T04:00:12;20.40;99.90
6865;DHT22;3471;49.678;8.388;2023-07-29T04:02:38;20.40;99.90
6865;DHT22;3471;49.678;8.388;2023-07-29T04:05:05;20.40;99.90
6865;DHT22;3471;49.678;8.388;2023-07-29T04:07:31;20.40;99.90
6865;DHT22;3471;49.678;8.388;2023-07-29T04:09:57;20.40;99.90
6865;DHT22;3471;49.678;8.388;2023-07-29T04:12:23;20.40;99.90
6865;DHT22;3471;49.678;8.388;2023-07-29T04:14:49;20.40;99.90
6865;DHT22;3471;49.678;8.388;2023-07-29T04:17:15;20.30;99.90
6865;DHT22;3471;49.678;8.388;2023-07-29T04:19:40;20.40;99.90
6865;DHT22;3471;49.678;8.388;2023-07-29T04:22:06;20.40;99.90
6865;DHT22;3471;49.678;8.388;2023-07-29T04:24:32;20.40;99.90
6865;DHT22;3471;49.678;8.388;2023-07-29T04:26:57;20.30;99.90
6865;DHT22;3471;49.678;8.388;2023-07-29T04:29:23;20.30;99.90
6865;DHT22;3471;49.678;8.388;2023-07-29T04:31:50;20.30;99.90
6865;DHT22;3471;49.678;8.388;2023-07-29T04:34:16;20.30;99.90
6865;DHT22;3471;49.678;8.388;2023-07-29T04:36:42;20.40;99.90
6865;DHT22;3471;49.678;8.388;2023-07-29T04:39:08;20.30;99.90
6865;DHT22;3471;49.678;8.388;2023-07-29T04:41:34;20.40;99.90
6865;DHT22;3471;49.678;8.388;2023-07-29T04:44:00;20.40;99.90
6865;DHT22;3471;49.678;8.388;2023-07-29T04:46:25;20.40;99.90
6865;DHT22;3471;49.678;8.388;2023-07-29T04:48:51;20.40;99.90
6865;DHT22;3471;49.678;8.388;2023-07-29T04:51:16;20.50;99.90
6865;DHT22;3471;49.678;8.388;2023-07-29T04:53:42;20.50;99.90
6865;DHT22;3471;49.678;8.388;2023-07-29T04:56:08;20.60;99.90
6865;DHT22;3471;49.678;8.388;2023-07-29T04:58:33;20.70;99.90
6865;DHT22;3471;49.678;8.388;2023-07-29T05:01:01;20.80;99.90
6865;DHT22;3471;49.678;8.388;2023-07-29T05:03:27;20.80;99.90
6865;DHT22;3471;49.678;8.388;2023-07-29T05:05:53;20.90;99.90
6865;DHT22;3471;49.678;8.388;2023-07-29T05:08:21;20.80;99.90
6865;DHT22;3471;49.678;8.388;2023-07-29T05:10:50;20.90;99.90
6865;DHT22;3471;49.678;8.388;2023-07-29T05:13:16;20.90;99.90
6865;DHT22;3471;49.678;8.388;2023-07-29T05:15:42;20.90;99.90
6865;DHT22;3471;49.678;8.388;2023-07-29T05:18:07;20.90;99.90
6865;DHT22;3471;49.678;8.388;2023-07-29T05:20:33;20.90;99.90
6865;DHT22;3471;49.678;8.388;2023-07-29T05:22:58;20.90;99.90
6865;DHT22;3471;49.678;8.388;2023-07-29T05:25:24;20.90;99.90
6865;DHT22;3471;49.678;8.388;2023-07-29T05:27:50;20.90;99.90
6865;DHT22;3471;49.678;8.388;2023-07-29T05:30:15;20.80;99.90
6865;DHT22;3471;49.678;8.388;2023-07-29T05:32:41;20.90;99.90
6865;DHT22;3471;49.678;8.388;2023-07-29T05:35:07;20.80;99.90
6865;DHT22;3471;49.678;8.388;2023-07-29T05:37:32;20.80;99.90
6865;DHT22;3471;49.678;8.388;2023-07-29T05:39:58;20.80;99.90
6865;DHT22;3471;49.678;8.388;2023-07-29T05:42:24;20.80;99.90
6865;DHT22;3471;49.678;8.388;2023-07-29T05:44:50;20.80;99.90
6865;DHT22;3471;49.678;8.388;2023-07-29T05:47:15;20.70;99.90
6865;DHT22;3471;49.678;8.388;2023-07-29T05:49:41;20.70;99.90
6865;DHT22;3471;49.678;8.388;2023-07-29T05:52:07;20.70;99.90
6865;DHT22;3471;49.678;8.388;2023-07-29T05:54:33;20.70;99.90
6865;DHT22;3471;49.678;8.388;2023-07-29T05:56:58;20.70;99.90
6865;DHT22;3471;49.678;8.388;2023-07-29T05:59:24;20.60;99.90
6865;DHT22;3471;49.678;8.388;2023-07-29T06:01:49;20.60;99.90
6865;DHT22;3471;49.678;8.388;2023-07-29T06:04:15;20.70;99.90
6865;DHT22;3471;49.678;8.388;2023-07-29T06:06:41;20.70;99.90
6865;DHT22;3471;49.678;8.388;2023-07-29T06:09:06;20.70;99.90
6865;DHT22;3471;49.678;8.388;2023-07-29T06:11:32;20.70;99.90
6865;DHT22;3471;49.678;8.388;2023-07-29T06:13:57;20.80;99.90
6865;DHT22;3471;49.678;8.388;2023-07-29T06:16:23;20.80;99.90
6865;DHT22;3471;49.678;8.388;2023-07-29T06:18:48;20.90;99.90
6865;DHT22;3471;49.678;8.388;2023-07-29T06:21:14;21.00;99.90
6865;DHT22;3471;49.678;8.388;2023-07-29T06:23:43;21.10;99.90
6865;DHT22;3471;49.678;8.388;2023-07-29T06:26:09;21.20;99.90
6865;DHT22;3471;49.678;8.388;2023-07-29T06:28:34;21.20;99.90
6865;DHT22;3471;49.678;8.388;2023-07-29T06:31:00;21.30;99.90
6865;DHT22;3471;49.678;8.388;2023-07-29T06:33:26;21.30;99.90
6865;DHT22;3471;49.678;8.388;2023-07-29T06:35:51;21.30;99.90
6865;DHT22;3471;49.678;8.388;2023-07-29T06:38:17;21.30;99.90
6865;DHT22;3471;49.678;8.388;2023-07-29T06:40:50;21.30;99.90
6865;DHT22;3471;49.678;8.388;2023-07-29T06:43:15;21.30;99.90
6865;DHT22;3471;49.678;8.388;2023-07-29T06:45:41;21.30;99.90
6865;DHT22;3471;49.678;8.388;2023-07-29T06:48:07;21.30;99.90
6865;DHT22;3471;49.678;8.388;2023-07-29T06:50:32;21.30;99.90
6865;DHT22;3471;49.678;8.388;2023-07-29T06:52:58;21.30;99.90
6865;DHT22;3471;49.678;8.388;2023-07-29T06:55:23;21.30;99.90
6865;DHT22;3471;49.678;8.388;2023-07-29T06:57:49;21.30;99.90
6865;DHT22;3471;49.678;8.388;2023-07-29T07:00:15;21.30;99.90
6865;DHT22;3471;49.678;8.388;2023-07-29T07:02:40;21.30;99.90
6865;DHT22;3471;49.678;8.388;2023-07-29T07:05:07;21.30;99.90
6865;DHT22;3471;49.678;8.388;2023-07-29T07:07:32;21.20;99.90
6865;DHT22;3471;49.678;8.388;2023-07-29T07:09:58;21.20;99.90
6865;DHT22;3471;49.678;8.388;2023-07-29T07:12:24;21.10;99.90
6865;DHT22;3471;49.678;8.388;2023-07-29T07:14:49;21.00;99.90
6865;DHT22;3471;49.678;8.388;2023-07-29T07:17:15;21.00;99.90
6865;DHT22;3471;49.678;8.388;2023-07-29T07:19:40;21.00;99.90
6865;DHT22;3471;49.678;8.388;2023-07-29T07:22:06;21.00;99.90
6865;DHT22;3471;49.678;8.388;2023-07-29T07:24:32;21.10;99.90
6865;DHT22;3471;49.678;8.388;2023-07-29T07:26:57;21.10;99.90
6865;DHT22;3471;49.678;8.388;2023-07-29T07:29:23;21.20;99.90
6865;DHT22;3471;49.678;8.388;2023-07-29T07:31:53;21.30;99.90
6865;DHT22;3471;49.678;8.388;2023-07-29T07:34:22;21.30;99.90
6865;DHT22;3471;49.678;8.388;2023-07-29T07:36:55;21.30;99.90
6865;DHT22;3471;49.678;8.388;2023-07-29T07:39:20;21.20;99.90
6865;DHT22;3471;49.678;8.388;2023-07-29T07:41:46;21.20;99.90
6865;DHT22;3471;49.678;8.388;2023-07-29T07:44:12;21.20;99.90
6865;DHT22;3471;49.678;8.388;2023-07-29T07:46:41;21.10;99.90
6865;DHT22;3471;49.678;8.388;2023-07-29T07:49:06;21.10;99.90
6865;DHT22;3471;49.678;8.388;2023-07-29T07:51:32;21.10;99.90
6865;DHT22;3471;49.678;8.388;2023-07-29T07:53:58;21.10;99.90
6865;DHT22;3471;49.678;8.388;2023-07-29T07:56:23;21.00;99.90
6865;DHT22;3471;49.678;8.388;2023-07-29T07:58:49;20.90;99.90
6865;DHT22;3471;49.678;8.388;2023-07-29T08:01:14;20.80;99.90
6865;DHT22;3471;49.678;8.388;2023-07-29T08:03:40;20.70;99.90
6865;DHT22;3471;49.678;8.388;2023-07-29T08:06:05;20.60;99.90
6865;DHT22;3471;49.678;8.388;2023-07-29T08:08:31;20.50;99.90
6865;DHT22;3471;49.678;8.388;2023-07-29T08:10:57;20.50;99.90
6865;DHT22;3471;49.678;8.388;2023-07-29T08:13:23;20.40;99.90
6865;DHT22;3471;49.678;8.388;2023-07-29T08:15:51;20.40;99.90
6865;DHT22;3471;49.678;8.388;2023-07-29T08:18:17;20.50;99.90
6865;DHT22;3471;49.678;8.388;2023-07-29T08:20:57;20.50;99.90
6865;DHT22;3471;49.678;8.388;2023-07-29T08:23:33;20.50;99.90
6865;DHT22;3471;49.678;8.388;2023-07-29T08:26:01;20.60;99.90
6865;DHT22;3471;49.678;8.388;2023-07-29T08:28:35;20.90;99.90
6865;DHT22;3471;49.678;8.388;2023-07-29T08:31:00;21.10;99.90
6865;DHT22;3471;49.678;8.388;2023-07-29T08:33:26;21.30;99.90
6865;DHT22;3471;49.678;8.388;2023-07-29T08:35:52;21.50;99.90
6865;DHT22;3471;49.678;8.388;2023-07-29T08:38:18;21.70;99.90
6865;DHT22;3471;49.678;8.388;2023-07-29T08:41:03;21.90;99.90
6865;DHT22;3471;49.678;8.388;2023-07-29T08:43:31;22.10;99.90
6865;DHT22;3471;49.678;8.388;2023-07-29T08:45:58;22.20;99.90
6865;DHT22;3471;49.678;8.388;2023-07-29T08:48:34;22.30;99.90
6865;DHT22;3471;49.678;8.388;2023-07-29T08:51:03;22.50;99.90
6865;DHT22;3471;49.678;8.388;2023-07-29T08:53:29;22.70;99.90
6865;DHT22;3471;49.678;8.388;2023-07-29T08:55:55;22.80;99.90
6865;DHT22;3471;49.678;8.388;2023-07-29T08:58:21;23.00;99.90
6865;DHT22;3471;49.678;8.388;2023-07-29T09:00:48;23.10;99.90
6865;DHT22;3471;49.678;8.388;2023-07-29T09:03:14;23.30;99.90
6865;DHT22;3471;49.678;8.388;2023-07-29T09:05:40;23.30;99.90
6865;DHT22;3471;49.678;8.388;2023-07-29T09:08:05;23.40;99.90
6865;DHT22;3471;49.678;8.388;2023-07-29T09:10:35;23.30;99.90
6865;DHT22;3471;49.678;8.388;2023-07-29T09:13:02;23.20;99.90
6865;DHT22;3471;49.678;8.388;2023-07-29T09:15:30;23.20;99.90
6865;DHT22;3471;49.678;8.388;2023-07-29T09:17:59;23.20;99.90
6865;DHT22;3471;49.678;8.388;2023-07-29T09:20:26;23.20;99.90
6865;DHT22;3471;49.678;8.388;2023-07-29T09:22:58;23.20;99.90
6865;DHT22;3471;49.678;8.388;2023-07-29T09:25:26;23.20;99.90
6865;DHT22;3471;49.678;8.388;2023-07-29T09:27:52;23.40;99.90
6865;DHT22;3471;49.678;8.388;2023-07-29T09:30:18;23.50;99.90
6865;DHT22;3471;49.678;8.388;2023-07-29T09:32:44;23.60;99.90
6865;DHT22;3471;49.678;8.388;2023-07-29T09:35:11;23.70;99.90
6865;DHT22;3471;49.678;8.388;2023-07-29T09:37:38;24.00;99.90
6865;DHT22;3471;49.678;8.388;2023-07-29T09:40:05;24.20;99.90
6865;DHT22;3471;49.678;8.388;2023-07-29T09:42:31;24.40;99.90
6865;DHT22;3471;49.678;8.388;2023-07-29T09:44:57;24.60;99.90
6865;DHT22;3471;49.678;8.388;2023-07-29T09:47:24;24.80;99.90
6865;DHT22;3471;49.678;8.388;2023-07-29T09:49:51;24.90;99.90
6865;DHT22;3471;49.678;8.388;2023-07-29T09:52:19;25.10;99.90
6865;DHT22;3471;49.678;8.388;2023-07-29T09:54:46;25.30;99.90
6865;DHT22;3471;49.678;8.388;2023-07-29T09:57:17;25.50;99.90
6865;DHT22;3471;49.678;8.388;2023-07-29T09:59:53;25.80;99.90
6865;DHT22;3471;49.678;8.388;2023-07-29T10:02:19;26.10;99.90
6865;DHT22;3471;49.678;8.388;2023-07-29T10:04:46;26.30;99.90
6865;DHT22;3471;49.678;8.388;2023-07-29T10:07:12;26.50;99.90
6865;DHT22;3471;49.678;8.388;2023-07-29T10:09:39;26.70;99.90
6865;DHT22;3471;49.678;8.388;2023-07-29T10:12:06;26.80;99.90
6865;DHT22;3471;49.678;8.388;2023-07-29T10:14:32;26.70;99.90
6865;DHT22;3471;49.678;8.388;2023-07-29T10:16:58;26.70;99.90
6865;DHT22;3471;49.678;8.388;2023-07-29T10:19:25;26.40;99.90
6865;DHT22;3471;49.678;8.388;2023-07-29T10:21:52;26.20;99.90
6865;DHT22;3471;49.678;8.388;2023-07-29T10:24:22;25.80;99.90
6865;DHT22;3471;49.678;8.388;2023-07-29T10:26:58;25.50;99.90
6865;DHT22;3471;49.678;8.388;2023-07-29T10:29:27;25.30;99.90
6865;DHT22;3471;49.678;8.388;2023-07-29T10:31:54;25.20;99.90
6865;DHT22;3471;49.678;8.388;2023-07-29T10:34:22;25.30;99.90
6865;DHT22;3471;49.678;8.388;2023-07-29T10:36:50;25.30;99.90
6865;DHT22;3471;49.678;8.388;2023-07-29T10:39:16;25.30;99.90
6865;DHT22;3471;49.678;8.388;2023-07-29T10:42:00;25.30;99.90
6865;DHT22;3471;49.678;8.388;2023-07-29T10:44:50;25.10;99.90
6865;DHT22;3471;49.678;8.388;2023-07-29T10:49:50;25.30;99.90
6865;DHT22;3471;49.678;8.388;2023-07-29T10:52:31;25.50;99.90
6865;DHT22;3471;49.678;8.388;2023-07-29T10:55:03;25.90;99.90
6865;DHT22;3471;49.678;8.388;2023-07-29T10:57:38;26.10;99.90
6865;DHT22;3471;49.678;8.388;2023-07-29T11:00:05;26.00;99.90
6865;DHT22;3471;49.678;8.388;2023-07-29T11:02:39;25.90;99.90
6865;DHT22;3471;49.678;8.388;2023-07-29T11:05:17;26.00;99.90
6865;DHT22;3471;49.678;8.388;2023-07-29T11:07:47;26.00;99.90
6865;DHT22;3471;49.678;8.388;2023-07-29T11:10:14;26.10;99.90
6865;DHT22;3471;49.678;8.388;2023-07-29T11:12:51;26.00;99.90
6865;DHT22;3471;49.678;8.388;2023-07-29T11:15:24;26.20;99.90
6865;DHT22;3471;49.678;8.388;2023-07-29T11:20:18;26.30;99.90
6865;DHT22;3471;49.678;8.388;2023-07-29T11:22:44;26.40;99.90
6865;DHT22;3471;49.678;8.388;2023-07-29T11:25:14;26.60;99.90
6865;DHT22;3471;49.678;8.388;2023-07-29T11:27:41;26.80;99.90
6865;DHT22;3471;49.678;8.388;2023-07-29T11:30:08;27.00;99.90
6865;DHT22;3471;49.678;8.388;2023-07-29T11:32:35;27.10;99.90
6865;DHT22;3471;49.678;8.388;2023-07-29T11:35:08;27.30;99.90
6865;DHT22;3471;49.678;8.388;2023-07-29T11:37:35;27.30;99.90
6865;DHT22;3471;49.678;8.388;2023-07-29T11:40:01;27.60;99.90
6865;DHT22;3471;49.678;8.388;2023-07-29T11:42:28;27.70;99.90
6865;DHT22;3471;49.678;8.388;2023-07-29T11:44:56;27.80;99.90
6865;DHT22;3471;49.678;8.388;2023-07-29T11:47:23;28.00;99.90
6865;DHT22;3471;49.678;8.388;2023-07-29T11:49:48;28.00;99.90
6865;DHT22;3471;49.678;8.388;2023-07-29T11:52:14;28.10;99.90
6865;DHT22;3471;49.678;8.388;2023-07-29T11:54:44;28.30;99.90
6865;DHT22;3471;49.678;8.388;2023-07-29T11:57:09;28.50;99.90
6865;DHT22;3471;49.678;8.388;2023-07-29T11:59:36;28.50;99.90
6865;DHT22;3471;49.678;8.388;2023-07-29T12:02:12;28.60;99.90
6865;DHT22;3471;49.678;8.388;2023-07-29T12:04:39;28.70;99.90
6865;DHT22;3471;49.678;8.388;2023-07-29T12:07:05;28.60;99.90
6865;DHT22;3471;49.678;8.388;2023-07-29T12:09:31;28.60;99.90
6865;DHT22;3471;49.678;8.388;2023-07-29T12:12:06;28.60;99.90
6865;DHT22;3471;49.678;8.388;2023-07-29T12:14:32;28.60;99.90
6865;DHT22;3471;49.678;8.388;2023-07-29T12:17:04;28.50;99.90
6865;DHT22;3471;49.678;8.388;2023-07-29T12:22:00;28.70;99.90
6865;DHT22;3471;49.678;8.388;2023-07-29T12:24:34;28.90;99.90
6865;DHT22;3471;49.678;8.388;2023-07-29T12:27:00;29.10;99.90
6865;DHT22;3471;49.678;8.388;2023-07-29T12:29:26;29.40;99.90
6865;DHT22;3471;49.678;8.388;2023-07-29T12:32:00;29.70;99.90
6865;DHT22;3471;49.678;8.388;2023-07-29T12:34:27;29.70;99.90
6865;DHT22;3471;49.678;8.388;2023-07-29T12:36:54;29.70;99.90
6865;DHT22;3471;49.678;8.388;2023-07-29T12:41:50;29.60;99.90
6865;DHT22;3471;49.678;8.388;2023-07-29T12:44:16;29.40;99.90
6865;DHT22;3471;49.678;8.388;2023-07-29T12:46:41;29.40;99.90
6865;DHT22;3471;49.678;8.388;2023-07-29T12:49:07;29.40;99.90
6865;DHT22;3471;49.678;8.388;2023-07-29T12:51:33;29.60;99.90
6865;DHT22;3471;49.678;8.388;2023-07-29T12:53:59;29.70;99.90
6865;DHT22;3471;49.678;8.388;2023-07-29T12:56:24;29.70;99.90
6865;DHT22;3471;49.678;8.388;2023-07-29T12:58:50;29.70;99.90
6865;DHT22;3471;49.678;8.388;2023-07-29T13:01:15;29.80;99.90
6865;DHT22;3471;49.678;8.388;2023-07-29T13:03:45;29.90;99.90
6865;DHT22;3471;49.678;8.388;2023-07-29T13:06:10;30.10;99.90
6865;DHT22;3471;49.678;8.388;2023-07-29T13:08:36;30.20;99.90
6865;DHT22;3471;49.678;8.388;2023-07-29T13:11:02;30.40;99.90
6865;DHT22;3471;49.678;8.388;2023-07-29T13:13:28;30.60;99.70
6865;DHT22;3471;49.678;8.388;2023-07-29T13:15:54;30.70;99.80
6865;DHT22;3471;49.678;8.388;2023-07-29T13:18:20;30.80;99.90
6865;DHT22;3471;49.678;8.388;2023-07-29T13:20:46;31.00;99.30
6865;DHT22;3471;49.678;8.388;2023-07-29T13:23:12;31.20;98.50
6865;DHT22;3471;49.678;8.388;2023-07-29T13:25:37;31.50;98.30
6865;DHT22;3471;49.678;8.388;2023-07-29T13:28:03;31.70;99.00
6865;DHT22;3471;49.678;8.388;2023-07-29T13:30:29;31.90;98.30
6865;DHT22;3471;49.678;8.388;2023-07-29T13:32:54;32.20;99.20
6865;DHT22;3471;49.678;8.388;2023-07-29T13:35:20;32.40;96.20
6865;DHT22;3471;49.678;8.388;2023-07-29T13:37:45;32.40;96.00
6865;DHT22;3471;49.678;8.388;2023-07-29T13:40:11;32.30;96.50
6865;DHT22;3471;49.678;8.388;2023-07-29T13:42:37;32.20;97.10
6865;DHT22;3471;49.678;8.388;2023-07-29T13:45:02;32.10;96.70
6865;DHT22;3471;49.678;8.388;2023-07-29T13:47:28;32.10;96.00
6865;DHT22;3471;49.678;8.388;2023-07-29T13:49:54;32.10;95.60
6865;DHT22;3471;49.678;8.388;2023-07-29T13:52:19;31.90;96.80
6865;DHT22;3471;49.678;8.388;2023-07-29T13:54:45;32.00;96.10
6865;DHT22;3471;49.678;8.388;2023-07-29T13:57:10;32.30;95.70
6865;DHT22;3471;49.678;8.388;2023-07-29T13:59:36;32.30;95.50
6865;DHT22;3471;49.678;8.388;2023-07-29T14:02:05;32.40;95.00
6865;DHT22;3471;49.678;8.388;2023-07-29T14:04:31;32.50;95.40
6865;DHT22;3471;49.678;8.388;2023-07-29T14:06:57;32.70;94.90
6865;DHT22;3471;49.678;8.388;2023-07-29T14:09:23;32.60;94.70
6865;DHT22;3471;49.678;8.388;2023-07-29T14:11:48;32.40;93.90
6865;DHT22;3471;49.678;8.388;2023-07-29T14:14:14;32.00;94.40
6865;DHT22;3471;49.678;8.388;2023-07-29T14:16:40;31.70;95.00
6865;DHT22;3471;49.678;8.388;2023-07-29T14:19:05;31.70;95.40
6865;DHT22;3471;49.678;8.388;2023-07-29T14:21:31;31.60;95.00
6865;DHT22;3471;49.678;8.388;2023-07-29T14:23:56;31.40;95.90
6865;DHT22;3471;49.678;8.388;2023-07-29T14:26:22;31.50;95.90
6865;DHT22;3471;49.678;8.388;2023-07-29T14:28:48;31.90;96.00
6865;DHT22;3471;49.678;8.388;2023-07-29T14:31:15;32.20;94.90
6865;DHT22;3471;49.678;8.388;2023-07-29T14:33:42;32.40;94.90
6865;DHT22;3471;49.678;8.388;2023-07-29T14:36:08;32.50;95.40
6865;DHT22;3471;49.678;8.388;2023-07-29T14:38:34;32.50;94.60
6865;DHT22;3471;49.678;8.388;2023-07-29T14:41:00;32.20;94.20
6865;DHT22;3471;49.678;8.388;2023-07-29T14:43:26;31.70;94.80
6865;DHT22;3471;49.678;8.388;2023-07-29T14:45:51;31.30;96.30
6865;DHT22;3471;49.678;8.388;2023-07-29T14:48:17;31.00;96.00
6865;DHT22;3471;49.678;8.388;2023-07-29T14:50:42;30.70;96.30
6865;DHT22;3471;49.678;8.388;2023-07-29T14:53:09;30.40;97.10
6865;DHT22;3471;49.678;8.388;2023-07-29T14:55:36;30.10;97.50
6865;DHT22;3471;49.678;8.388;2023-07-29T14:58:01;29.80;97.30
6865;DHT22;3471;49.678;8.388;2023-07-29T15:00:27;29.40;97.50
6865;DHT22;3471;49.678;8.388;2023-07-29T15:02:53;29.00;97.40
6865;DHT22;3471;49.678;8.388;2023-07-29T15:05:18;28.90;98.00
6865;DHT22;3471;49.678;8.388;2023-07-29T15:07:44;29.30;98.80
6865;DHT22;3471;49.678;8.388;2023-07-29T15:10:09;30.00;97.90
6865;DHT22;3471;49.678;8.388;2023-07-29T15:12:46;30.60;97.40
6865;DHT22;3471;49.678;8.388;2023-07-29T15:15:12;30.90;97.50
6865;DHT22;3471;49.678;8.388;2023-07-29T15:17:37;30.70;96.90
6865;DHT22;3471;49.678;8.388;2023-07-29T15:20:03;30.30;97.50
6865;DHT22;3471;49.678;8.388;2023-07-29T15:22:30;30.00;97.20
6865;DHT22;3471;49.678;8.388;2023-07-29T15:24:57;29.90;97.60
6865;DHT22;3471;49.678;8.388;2023-07-29T15:27:24;30.10;97.90
6865;DHT22;3471;49.678;8.388;2023-07-29T15:29:50;30.30;97.60
6865;DHT22;3471;49.678;8.388;2023-07-29T15:32:15;30.60;97.50
6865;DHT22;3471;49.678;8.388;2023-07-29T15:34:41;30.80;97.20
6865;DHT22;3471;49.678;8.388;2023-07-29T15:37:07;30.90;97.20
6865;DHT22;3471;49.678;8.388;2023-07-29T15:39:33;30.80;96.50
6865;DHT22;3471;49.678;8.388;2023-07-29T15:41:58;30.40;96.60
6865;DHT22;3471;49.678;8.388;2023-07-29T15:44:24;30.10;97.50
6865;DHT22;3471;49.678;8.388;2023-07-29T15:46:50;29.70;98.10
6865;DHT22;3471;49.678;8.388;2023-07-29T15:49:19;29.50;98.50
6865;DHT22;3471;49.678;8.388;2023-07-29T15:51:44;29.40;99.80
6865;DHT22;3471;49.678;8.388;2023-07-29T15:54:10;29.50;98.90
6865;DHT22;3471;49.678;8.388;2023-07-29T15:56:36;29.70;98.50
6865;DHT22;3471;49.678;8.388;2023-07-29T15:59:02;30.10;98.20
6865;DHT22;3471;49.678;8.388;2023-07-29T16:01:28;30.20;97.70
6865;DHT22;3471;49.678;8.388;2023-07-29T16:03:54;30.10;97.70
6865;DHT22;3471;49.678;8.388;2023-07-29T16:06:27;29.90;97.90
6865;DHT22;3471;49.678;8.388;2023-07-29T16:08:53;29.60;97.80
6865;DHT22;3471;49.678;8.388;2023-07-29T16:11:21;29.30;98.80
6865;DHT22;3471;49.678;8.388;2023-07-29T16:13:47;29.00;98.00